sensor_id;sensor_type;location;lat;lon;timestamp;temperature;humidity
43997;DHT22;34318;45.818;15.964;2022-09-29T00:00:37;21.90;88.60
43997;DHT22;34318;45.818;15.964;2022-09-29T00:03:05;21.90;88.50
43997;DHT22;34318;45.818;15.964;2022-09-29T00:05:32;21.90;88.60
43997;DHT22;34318;45.818;15.964;2022-09-29T00:07:59;21.90;88.70
43997;DHT22;34318;45.818;15.964;2022-09-29T00:10:26;21.90;88.50
43997;DHT22;34318;45.818;15.964;2022-09-29T00:12:54;22.00;88.50
43997;DHT22;34318;45.818;15.964;2022-09-29T00:15:21;22.00;88.30
43997;DHT22;34318;45.818;15.964;2022-09-29T00:17:52;21.90;89.20
43997;DHT22;34318;45.818;15.964;2022-09-29T00:20:39;22.00;88.40
43997;DHT22;34318;45.818;15.964;2022-09-29T00:23:08;22.00;88.20
43997;DHT22;34318;45.818;15.964;2022-09-29T00:25:35;22.00;88.30
43997;DHT22;34318;45.818;15.964;2022-09-29T00:28:03;22.00;88.20
43997;DHT22;34318;45.818;15.964;2022-09-29T00:30:30;22.00;88.10
43997;DHT22;34318;45.818;15.964;2022-09-29T00:32:57;22.00;88.10
43997;DHT22;34318;45.818;15.964;2022-09-29T00:35:24;21.90;88.40
43997;DHT22;34318;45.818;15.964;2022-09-29T00:37:51;21.90;88.40
43997;DHT22;34318;45.818;15.964;2022-09-29T00:40:18;21.90;88.20
43997;DHT22;34318;45.818;15.964;2022-09-29T00:42:45;21.90;88.20
43997;DHT22;34318;45.818;15.964;2022-09-29T00:47:44;22.00;88.10
43997;DHT22;34318;45.818;15.964;2022-09-29T00:50:20;21.90;88.30
43997;DHT22;34318;45.818;15.964;2022-09-29T00:52:55;21.90;88.30
43997;DHT22;34318;45.818;15.964;2022-09-29T00:55:35;21.90;88.10
43997;DHT22;34318;45.818;15.964;2022-09-29T00:58:18;21.90;88.10
43997;DHT22;34318;45.818;15.964;2022-09-29T01:00:48;21.90;88.10
43997;DHT22;34318;45.818;15.964;2022-09-29T01:03:18;21.90;88.10
43997;DHT22;34318;45.818;15.964;2022-09-29T01:06:09;21.90;88.00
43997;DHT22;34318;45.818;15.964;2022-09-29T01:08:50;21.90;88.30
43997;DHT22;34318;45.818;15.964;2022-09-29T01:11:21;21.90;88.10
43997;DHT22;34318;45.818;15.964;2022-09-29T01:13:48;21.90;88.30
43997;DHT22;34318;45.818;15.964;2022-09-29T01:16:15;21.90;88.10
43997;DHT22;34318;45.818;15.964;2022-09-29T01:18:42;21.90;88.00
43997;DHT22;34318;45.818;15.964;2022-09-29T01:21:30;21.90;88.10
43997;DHT22;34318;45.818;15.964;2022-09-29T01:24:19;21.90;88.10
43997;DHT22;34318;45.818;15.964;2022-09-29T01:27:15;21.90;88.00
43997;DHT22;34318;45.818;15.964;2022-09-29T01:32:39;21.90;87.90
43997;DHT22;34318;45.818;15.964;2022-09-29T01:43:34;21.90;88.50
43997;DHT22;34318;45.818;15.964;2022-09-29T01:46:16;21.90;88.20
43997;DHT22;34318;45.818;15.964;2022-09-29T01:48:49;21.90;88.00
43997;DHT22;34318;45.818;15.964;2022-09-29T01:51:21;21.90;88.10
43997;DHT22;34318;45.818;15.964;2022-09-29T01:53:52;21.90;87.90
43997;DHT22;34318;45.818;15.964;2022-09-29T01:56:26;21.90;88.10
43997;DHT22;34318;45.818;15.964;2022-09-29T01:58:59;21.90;88.10
43997;DHT22;34318;45.818;15.964;2022-09-29T02:01:31;21.90;88.10
43997;DHT22;34318;45.818;15.964;2022-09-29T02:04:04;21.90;88.60
43997;DHT22;34318;45.818;15.964;2022-09-29T02:06:37;21.90;87.90
43997;DHT22;34318;45.818;15.964;2022-09-29T02:09:13;21.90;87.90
43997;DHT22;34318;45.818;15.964;2022-09-29T02:11:41;21.90;88.00
43997;DHT22;34318;45.818;15.964;2022-09-29T02:14:22;21.90;87.80
43997;DHT22;34318;45.818;15.964;2022-09-29T02:16:55;21.90;87.70
43997;DHT22;34318;45.818;15.964;2022-09-29T02:19:28;21.90;87.70
43997;DHT22;34318;45.818;15.964;2022-09-29T02:21:57;21.90;87.80
43997;DHT22;34318;45.818;15.964;2022-09-29T02:24:24;21.90;87.90
43997;DHT22;34318;45.818;15.964;2022-09-29T02:26:51;21.80;88.00
43997;DHT22;34318;45.818;15.964;2022-09-29T02:29:18;21.80;87.90
43997;DHT22;34318;45.818;15.964;2022-09-29T02:31:46;21.80;88.10
43997;DHT22;34318;45.818;15.964;2022-09-29T02:34:18;21.80;87.80
43997;DHT22;34318;45.818;15.964;2022-09-29T02:44:57;21.90;87.60
43997;DHT22;34318;45.818;15.964;2022-09-29T03:01:02;21.80;87.60
43997;DHT22;34318;45.818;15.964;2022-09-29T03:03:29;21.80;87.50
43997;DHT22;34318;45.818;15.964;2022-09-29T03:05:57;21.90;87.70
43997;DHT22;34318;45.818;15.964;2022-09-29T03:08:24;21.80;87.50
43997;DHT22;34318;45.818;15.964;2022-09-29T03:10:52;21.90;87.40
43997;DHT22;34318;45.818;15.964;2022-09-29T03:13:18;21.90;87.30
43997;DHT22;34318;45.818;15.964;2022-09-29T03:15:45;21.90;87.40
43997;DHT22;34318;45.818;15.964;2022-09-29T03:18:13;21.80;87.30
43997;DHT22;34318;45.818;15.964;2022-09-29T03:20:40;21.80;87.40
43997;DHT22;34318;45.818;15.964;2022-09-29T03:23:06;21.80;87.50
43997;DHT22;34318;45.818;15.964;2022-09-29T03:25:33;21.80;87.40
43997;DHT22;34318;45.818;15.964;2022-09-29T03:28:00;21.80;87.70
43997;DHT22;34318;45.818;15.964;2022-09-29T03:30:27;21.80;87.50
43997;DHT22;34318;45.818;15.964;2022-09-29T03:32:54;21.80;87.50
43997;DHT22;34318;45.818;15.964;2022-09-29T03:35:20;21.80;87.60
43997;DHT22;34318;45.818;15.964;2022-09-29T03:37:48;21.80;87.40
43997;DHT22;34318;45.818;15.964;2022-09-29T03:40:14;21.80;87.40
43997;DHT22;34318;45.818;15.964;2022-09-29T03:42:44;21.80;87.30
43997;DHT22;34318;45.818;15.964;2022-09-29T03:45:10;21.80;87.30
43997;DHT22;34318;45.818;15.964;2022-09-29T03:47:38;21.80;87.40
43997;DHT22;34318;45.818;15.964;2022-09-29T03:50:05;21.80;87.20
43997;DHT22;34318;45.818;15.964;2022-09-29T03:52:32;21.80;87.30
43997;DHT22;34318;45.818;15.964;2022-09-29T03:54:59;21.80;87.80
43997;DHT22;34318;45.818;15.964;2022-09-29T03:57:26;21.80;87.30
43997;DHT22;34318;45.818;15.964;2022-09-29T03:59:52;21.80;87.30
43997;DHT22;34318;45.818;15.964;2022-09-29T04:02:19;21.80;87.30
43997;DHT22;34318;45.818;15.964;2022-09-29T04:04:46;21.80;87.20
43997;DHT22;34318;45.818;15.964;2022-09-29T04:07:14;21.80;87.00
43997;DHT22;34318;45.818;15.964;2022-09-29T04:09:41;21.80;86.90
43997;DHT22;34318;45.818;15.964;2022-09-29T04:12:08;21.80;87.10
43997;DHT22;34318;45.818;15.964;2022-09-29T04:14:35;21.80;86.80
43997;DHT22;34318;45.818;15.964;2022-09-29T04:17:02;21.80;86.80
43997;DHT22;34318;45.818;15.964;2022-09-29T04:19:28;21.80;87.00
43997;DHT22;34318;45.818;15.964;2022-09-29T04:21:55;21.80;87.10
43997;DHT22;34318;45.818;15.964;2022-09-29T04:24:23;21.80;86.80
43997;DHT22;34318;45.818;15.964;2022-09-29T04:26:50;21.80;86.90
43997;DHT22;34318;45.818;15.964;2022-09-29T04:29:17;21.80;87.00
43997;DHT22;34318;45.818;15.964;2022-09-29T04:31:43;21.80;87.00
43997;DHT22;34318;45.818;15.964;2022-09-29T04:34:10;21.80;86.80
43997;DHT22;34318;45.818;15.964;2022-09-29T04:36:37;21.80;86.60
43997;DHT22;34318;45.818;15.964;2022-09-29T04:39:04;21.90;86.10
43997;DHT22;34318;45.818;15.964;2022-09-29T04:41:31;21.90;86.50
43997;DHT22;34318;45.818;15.964;2022-09-29T04:44:00;22.00;86.10
43997;DHT22;34318;45.818;15.964;2022-09-29T04:46:28;22.00;85.90
43997;DHT22;34318;45.818;15.964;2022-09-29T04:48:55;21.90;85.90
43997;DHT22;34318;45.818;15.964;2022-09-29T04:51:21;22.00;85.70
43997;DHT22;34318;45.818;15.964;2022-09-29T04:53:48;22.00;86.00
43997;DHT22;34318;45.818;15.964;2022-09-29T04:56:15;21.90;86.20
43997;DHT22;34318;45.818;15.964;2022-09-29T04:58:42;22.00;86.10
43997;DHT22;34318;45.818;15.964;2022-09-29T05:01:11;22.00;85.90
43997;DHT22;34318;45.818;15.964;2022-09-29T05:03:41;22.00;85.90
43997;DHT22;34318;45.818;15.964;2022-09-29T05:06:08;21.90;86.40
43997;DHT22;34318;45.818;15.964;2022-09-29T05:08:35;21.90;86.40
43997;DHT22;34318;45.818;15.964;2022-09-29T05:11:07;21.90;86.60
43997;DHT22;34318;45.818;15.964;2022-09-29T05:13:35;21.90;86.40
43997;DHT22;34318;45.818;15.964;2022-09-29T05:16:03;21.90;86.40
43997;DHT22;34318;45.818;15.964;2022-09-29T05:18:30;21.90;86.40
43997;DHT22;34318;45.818;15.964;2022-09-29T05:21:07;21.90;86.30
43997;DHT22;34318;45.818;15.964;2022-09-29T05:23:54;21.90;86.60
43997;DHT22;34318;45.818;15.964;2022-09-29T05:26:21;21.90;87.10
43997;DHT22;34318;45.818;15.964;2022-09-29T05:28:48;21.90;86.90
43997;DHT22;34318;45.818;15.964;2022-09-29T05:31:15;21.90;86.80
43997;DHT22;34318;45.818;15.964;2022-09-29T05:33:43;21.90;86.80
43997;DHT22;34318;45.818;15.964;2022-09-29T05:36:11;21.90;87.30
43997;DHT22;34318;45.818;15.964;2022-09-29T05:38:38;21.90;87.00
43997;DHT22;34318;45.818;15.964;2022-09-29T05:41:10;21.90;87.00
43997;DHT22;34318;45.818;15.964;2022-09-29T05:43:38;21.90;87.00
43997;DHT22;34318;45.818;15.964;2022-09-29T05:46:07;21.90;87.40
43997;DHT22;34318;45.818;15.964;2022-09-29T05:48:34;21.90;87.00
43997;DHT22;34318;45.818;15.964;2022-09-29T05:51:12;21.90;87.00
43997;DHT22;34318;45.818;15.964;2022-09-29T05:53:40;21.90;86.90
43997;DHT22;34318;45.818;15.964;2022-09-29T05:56:15;21.90;86.90
43997;DHT22;34318;45.818;15.964;2022-09-29T05:58:42;21.90;86.80
43997;DHT22;34318;45.818;15.964;2022-09-29T06:01:15;21.90;87.10
43997;DHT22;34318;45.818;15.964;2022-09-29T06:03:43;21.90;87.00
43997;DHT22;34318;45.818;15.964;2022-09-29T06:06:15;21.90;86.90
43997;DHT22;34318;45.818;15.964;2022-09-29T06:08:43;21.90;86.80
43997;DHT22;34318;45.818;15.964;2022-09-29T06:11:13;21.90;86.60
43997;DHT22;34318;45.818;15.964;2022-09-29T06:13:43;21.90;86.70
43997;DHT22;34318;45.818;15.964;2022-09-29T06:16:12;21.90;86.70
43997;DHT22;34318;45.818;15.964;2022-09-29T06:18:39;21.90;86.60
43997;DHT22;34318;45.818;15.964;2022-09-29T06:21:09;21.90;86.50
43997;DHT22;34318;45.818;15.964;2022-09-29T06:23:37;21.90;86.60
43997;DHT22;34318;45.818;15.964;2022-09-29T06:26:10;22.00;86.30
43997;DHT22;34318;45.818;15.964;2022-09-29T06:28:37;21.90;86.40
43997;DHT22;34318;45.818;15.964;2022-09-29T06:31:12;22.00;86.30
43997;DHT22;34318;45.818;15.964;2022-09-29T06:33:39;21.90;86.30
43997;DHT22;34318;45.818;15.964;2022-09-29T06:38:58;22.00;86.30
43997;DHT22;34318;45.818;15.964;2022-09-29T06:41:26;21.90;86.40
43997;DHT22;34318;45.818;15.964;2022-09-29T06:43:55;21.90;86.70
43997;DHT22;34318;45.818;15.964;2022-09-29T06:46:23;21.90;86.40
43997;DHT22;34318;45.818;15.964;2022-09-29T06:48:54;22.00;86.50
43997;DHT22;34318;45.818;15.964;2022-09-29T06:51:23;22.00;86.30
43997;DHT22;34318;45.818;15.964;2022-09-29T06:54:10;21.90;86.20
43997;DHT22;34318;45.818;15.964;2022-09-29T06:56:39;21.90;86.20
43997;DHT22;34318;45.818;15.964;2022-09-29T06:59:06;22.00;86.30
43997;DHT22;34318;45.818;15.964;2022-09-29T07:01:33;21.90;86.30
43997;DHT22;34318;45.818;15.964;2022-09-29T07:04:00;21.90;86.50
43997;DHT22;34318;45.818;15.964;2022-09-29T07:06:28;21.90;86.30
43997;DHT22;34318;45.818;15.964;2022-09-29T07:08:57;21.90;86.20
43997;DHT22;34318;45.818;15.964;2022-09-29T07:11:25;22.00;86.60
43997;DHT22;34318;45.818;15.964;2022-09-29T07:13:53;21.80;86.30
43997;DHT22;34318;45.818;15.964;2022-09-29T07:16:21;21.70;86.90
43997;DHT22;34318;45.818;15.964;2022-09-29T07:18:51;21.70;86.30
43997;DHT22;34318;45.818;15.964;2022-09-29T07:21:19;21.70;85.00
43997;DHT22;34318;45.818;15.964;2022-09-29T07:23:47;21.70;85.10
43997;DHT22;34318;45.818;15.964;2022-09-29T07:26:15;21.70;85.10
43997;DHT22;34318;45.818;15.964;2022-09-29T07:28:44;21.70;85.00
43997;DHT22;34318;45.818;15.964;2022-09-29T07:31:20;21.70;85.10
43997;DHT22;34318;45.818;15.964;2022-09-29T07:33:49;21.70;84.60
43997;DHT22;34318;45.818;15.964;2022-09-29T07:36:18;21.80;84.50
43997;DHT22;34318;45.818;15.964;2022-09-29T07:38:47;21.80;84.00
43997;DHT22;34318;45.818;15.964;2022-09-29T07:41:14;21.80;83.80
43997;DHT22;34318;45.818;15.964;2022-09-29T07:43:42;21.80;83.80
43997;DHT22;34318;45.818;15.964;2022-09-29T07:46:09;21.90;83.70
43997;DHT22;34318;45.818;15.964;2022-09-29T07:48:37;21.80;84.40
43997;DHT22;34318;45.818;15.964;2022-09-29T07:53:34;21.90;83.90
43997;DHT22;34318;45.818;15.964;2022-09-29T07:56:10;21.90;84.10
43997;DHT22;34318;45.818;15.964;2022-09-29T07:58:39;21.90;84.30
43997;DHT22;34318;45.818;15.964;2022-09-29T08:01:08;21.90;84.10
43997;DHT22;34318;45.818;15.964;2022-09-29T08:03:40;21.90;84.20
43997;DHT22;34318;45.818;15.964;2022-09-29T08:06:09;21.90;84.10
43997;DHT22;34318;45.818;15.964;2022-09-29T08:08:38;21.90;84.40
43997;DHT22;34318;45.818;15.964;2022-09-29T08:11:13;21.90;84.20
43997;DHT22;34318;45.818;15.964;2022-09-29T08:13:55;21.90;84.20
43997;DHT22;34318;45.818;15.964;2022-09-29T08:16:22;21.90;84.30
43997;DHT22;34318;45.818;15.964;2022-09-29T08:18:50;21.90;84.30
43997;DHT22;34318;45.818;15.964;2022-09-29T08:21:18;21.90;84.20
43997;DHT22;34318;45.818;15.964;2022-09-29T08:23:45;21.90;84.20
43997;DHT22;34318;45.818;15.964;2022-09-29T08:26:15;21.90;84.20
43997;DHT22;34318;45.818;15.964;2022-09-29T08:28:43;21.90;84.80
43997;DHT22;34318;45.818;15.964;2022-09-29T08:31:18;21.80;86.00
43997;DHT22;34318;45.818;15.964;2022-09-29T08:33:49;21.90;86.20
43997;DHT22;34318;45.818;15.964;2022-09-29T08:36:19;21.90;85.70
43997;DHT22;34318;45.818;15.964;2022-09-29T08:38:49;21.90;85.30
43997;DHT22;34318;45.818;15.964;2022-09-29T08:44:08;21.90;85.30
43997;DHT22;34318;45.818;15.964;2022-09-29T08:49:50;22.00;85.20
43997;DHT22;34318;45.818;15.964;2022-09-29T08:52:29;22.00;85.10
43997;DHT22;34318;45.818;15.964;2022-09-29T08:57:50;21.90;85.20
43997;DHT22;34318;45.818;15.964;2022-09-29T09:00:21;22.00;84.80
43997;DHT22;34318;45.818;15.964;2022-09-29T09:03:32;22.00;84.60
43997;DHT22;34318;45.818;15.964;2022-09-29T09:06:35;22.00;84.50
43997;DHT22;34318;45.818;15.964;2022-09-29T09:09:30;22.00;84.80
43997;DHT22;34318;45.818;15.964;2022-09-29T09:23:42;22.00;85.00
43997;DHT22;34318;45.818;15.964;2022-09-29T09:26:13;22.00;85.30
43997;DHT22;34318;45.818;15.964;2022-09-29T09:28:52;22.00;85.10
43997;DHT22;34318;45.818;15.964;2022-09-29T09:31:22;22.00;85.30
43997;DHT22;34318;45.818;15.964;2022-09-29T09:36:36;22.00;85.00
43997;DHT22;34318;45.818;15.964;2022-09-29T09:39:18;22.00;85.50
43997;DHT22;34318;45.818;15.964;2022-09-29T09:41:49;22.10;86.10
43997;DHT22;34318;45.818;15.964;2022-09-29T09:50:11;22.10;89.70
43997;DHT22;34318;45.818;15.964;2022-09-29T09:53:02;22.20;90.30
43997;DHT22;34318;45.818;15.964;2022-09-29T09:55:30;22.20;91.10
43997;DHT22;34318;45.818;15.964;2022-09-29T10:00:31;22.30;91.20
43997;DHT22;34318;45.818;15.964;2022-09-29T10:03:03;22.30;91.40
43997;DHT22;34318;45.818;15.964;2022-09-29T10:05:40;22.30;92.40
43997;DHT22;34318;45.818;15.964;2022-09-29T10:08:35;22.30;92.50
43997;DHT22;34318;45.818;15.964;2022-09-29T10:11:21;22.30;93.20
43997;DHT22;34318;45.818;15.964;2022-09-29T10:14:18;22.30;93.10
43997;DHT22;34318;45.818;15.964;2022-09-29T10:17:01;22.20;92.50
43997;DHT22;34318;45.818;15.964;2022-09-29T10:20:00;22.30;93.10
43997;DHT22;34318;45.818;15.964;2022-09-29T10:22:28;22.20;92.70
43997;DHT22;34318;45.818;15.964;2022-09-29T10:27:42;22.20;93.40
43997;DHT22;34318;45.818;15.964;2022-09-29T10:30:22;22.20;92.90
43997;DHT22;34318;45.818;15.964;2022-09-29T10:32:54;22.20;92.60
43997;DHT22;34318;45.818;15.964;2022-09-29T10:35:26;22.20;92.50
43997;DHT22;34318;45.818;15.964;2022-09-29T10:41:03;22.10;92.10
43997;DHT22;34318;45.818;15.964;2022-09-29T10:43:38;22.10;91.80
43997;DHT22;34318;45.818;15.964;2022-09-29T10:51:41;22.00;91.20
43997;DHT22;34318;45.818;15.964;2022-09-29T10:54:15;22.00;91.00
43997;DHT22;34318;45.818;15.964;2022-09-29T10:56:49;22.00;90.90
43997;DHT22;34318;45.818;15.964;2022-09-29T10:59:16;22.00;90.80
43997;DHT22;34318;45.818;15.964;2022-09-29T11:01:47;21.90;90.60
43997;DHT22;34318;45.818;15.964;2022-09-29T11:04:23;21.90;90.50
43997;DHT22;34318;45.818;15.964;2022-09-29T11:06:52;22.00;90.10
43997;DHT22;34318;45.818;15.964;2022-09-29T11:14:42;21.90;89.10
43997;DHT22;34318;45.818;15.964;2022-09-29T11:17:26;21.90;88.90
43997;DHT22;34318;45.818;15.964;2022-09-29T11:20:04;21.90;88.40
43997;DHT22;34318;45.818;15.964;2022-09-29T11:38:35;21.90;86.80
43997;DHT22;34318;45.818;15.964;2022-09-29T11:58:22;21.90;85.50
43997;DHT22;34318;45.818;15.964;2022-09-29T12:03:42;21.90;85.10
43997;DHT22;34318;45.818;15.964;2022-09-29T12:06:18;21.90;85.80
43997;DHT22;34318;45.818;15.964;2022-09-29T12:16:58;22.00;85.20
43997;DHT22;34318;45.818;15.964;2022-09-29T12:19:27;22.00;85.00
43997;DHT22;34318;45.818;15.964;2022-09-29T12:21:58;22.00;85.20
43997;DHT22;34318;45.818;15.964;2022-09-29T12:24:37;22.00;85.30
43997;DHT22;34318;45.818;15.964;2022-09-29T12:27:21;22.00;85.70
43997;DHT22;34318;45.818;15.964;2022-09-29T12:29:56;22.10;85.50
43997;DHT22;34318;45.818;15.964;2022-09-29T12:32:43;22.00;85.70
43997;DHT22;34318;45.818;15.964;2022-09-29T12:38:05;22.00;85.90
43997;DHT22;34318;45.818;15.964;2022-09-29T12:40:42;22.00;86.00
43997;DHT22;34318;45.818;15.964;2022-09-29T12:49:30;22.00;86.10
43997;DHT22;34318;45.818;15.964;2022-09-29T12:52:00;22.00;86.40
43997;DHT22;34318;45.818;15.964;2022-09-29T12:54:36;22.00;86.40
43997;DHT22;34318;45.818;15.964;2022-09-29T12:57:14;22.00;86.20
43997;DHT22;34318;45.818;15.964;2022-09-29T13:00:07;22.00;86.10
43997;DHT22;34318;45.818;15.964;2022-09-29T13:05:48;22.00;86.20
43997;DHT22;34318;45.818;15.964;2022-09-29T13:16:38;22.00;86.20
43997;DHT22;34318;45.818;15.964;2022-09-29T13:22:51;22.00;86.00
43997;DHT22;34318;45.818;15.964;2022-09-29T13:25:48;22.10;85.80
43997;DHT22;34318;45.818;15.964;2022-09-29T13:28:28;22.10;85.90
43997;DHT22;34318;45.818;15.964;2022-09-29T13:31:19;22.10;85.70
43997;DHT22;34318;45.818;15.964;2022-09-29T13:33:51;22.10;85.60
43997;DHT22;34318;45.818;15.964;2022-09-29T13:36:45;22.10;85.10
43997;DHT22;34318;45.818;15.964;2022-09-29T13:39:24;22.00;85.00
43997;DHT22;34318;45.818;15.964;2022-09-29T13:41:53;22.00;84.50
43997;DHT22;34318;45.818;15.964;2022-09-29T13:44:26;22.00;84.00
43997;DHT22;34318;45.818;15.964;2022-09-29T13:46:54;22.00;83.30
43997;DHT22;34318;45.818;15.964;2022-09-29T13:49:24;22.00;82.30
43997;DHT22;34318;45.818;15.964;2022-09-29T13:54:40;22.10;81.80
43997;DHT22;34318;45.818;15.964;2022-09-29T14:18:39;22.10;83.00
43997;DHT22;34318;45.818;15.964;2022-09-29T14:21:13;22.10;82.80
43997;DHT22;34318;45.818;15.964;2022-09-29T14:29:31;22.10;83.30
43997;DHT22;34318;45.818;15.964;2022-09-29T14:32:01;22.10;83.40
43997;DHT22;34318;45.818;15.964;2022-09-29T14:34:30;22.10;83.50
43997;DHT22;34318;45.818;15.964;2022-09-29T14:36:59;22.10;83.50
43997;DHT22;34318;45.818;15.964;2022-09-29T14:39:27;22.00;84.70
43997;DHT22;34318;45.818;15.964;2022-09-29T14:41:55;22.10;84.00
43997;DHT22;34318;45.818;15.964;2022-09-29T14:44:26;22.10;84.10
43997;DHT22;34318;45.818;15.964;2022-09-29T14:47:38;22.10;84.10
43997;DHT22;34318;45.818;15.964;2022-09-29T14:50:50;22.00;84.80
43997;DHT22;34318;45.818;15.964;2022-09-29T14:59:47;22.00;85.10
43997;DHT22;34318;45.818;15.964;2022-09-29T15:02:23;22.00;85.10
43997;DHT22;34318;45.818;15.964;2022-09-29T15:04:52;22.00;84.80
43997;DHT22;34318;45.818;15.964;2022-09-29T15:07:21;22.10;85.00
43997;DHT22;34318;45.818;15.964;2022-09-29T15:10:01;22.10;85.00
43997;DHT22;34318;45.818;15.964;2022-09-29T15:13:19;22.00;84.70
43997;DHT22;34318;45.818;15.964;2022-09-29T15:15:49;22.00;85.00
43997;DHT22;34318;45.818;15.964;2022-09-29T15:21:16;22.10;85.70
43997;DHT22;34318;45.818;15.964;2022-09-29T15:26:36;22.10;86.00
43997;DHT22;34318;45.818;15.964;2022-09-29T15:29:07;22.10;86.70
43997;DHT22;34318;45.818;15.964;2022-09-29T15:31:38;22.10;85.90
43997;DHT22;34318;45.818;15.964;2022-09-29T15:34:15;22.10;86.00
43997;DHT22;34318;45.818;15.964;2022-09-29T15:36:47;22.10;86.00
43997;DHT22;34318;45.818;15.964;2022-09-29T15:42:13;22.00;86.60
43997;DHT22;34318;45.818;15.964;2022-09-29T15:44:45;22.10;86.40
43997;DHT22;34318;45.818;15.964;2022-09-29T15:47:21;22.00;86.20
43997;DHT22;34318;45.818;15.964;2022-09-29T15:49:50;22.10;86.40
43997;DHT22;34318;45.818;15.964;2022-09-29T15:52:18;22.10;86.30
43997;DHT22;34318;45.818;15.964;2022-09-29T15:54:57;22.10;86.20
43997;DHT22;34318;45.818;15.964;2022-09-29T15:57:43;22.10;86.30
43997;DHT22;34318;45.818;15.964;2022-09-29T16:05:41;22.10;86.50
43997;DHT22;34318;45.818;15.964;2022-09-29T16:08:24;22.00;86.60
43997;DHT22;34318;45.818;15.964;2022-09-29T16:10:55;22.10;86.60
43997;DHT22;34318;45.818;15.964;2022-09-29T16:13:29;22.00;86.70
43997;DHT22;34318;45.818;15.964;2022-09-29T16:16:09;22.00;87.30
43997;DHT22;34318;45.818;15.964;2022-09-29T16:21:19;22.10;86.60
43997;DHT22;34318;45.818;15.964;2022-09-29T16:24:12;22.10;86.90
43997;DHT22;34318;45.818;15.964;2022-09-29T16:31:48;22.20;86.60
43997;DHT22;34318;45.818;15.964;2022-09-29T16:39:17;22.10;86.90
43997;DHT22;34318;45.818;15.964;2022-09-29T16:41:50;22.10;86.40
43997;DHT22;34318;45.818;15.964;2022-09-29T16:47:32;22.20;86.90
43997;DHT22;34318;45.818;15.964;2022-09-29T16:49:46;22.10;87.00
43997;DHT22;34318;45.818;15.964;2022-09-29T16:54:45;22.10;87.20
43997;DHT22;34318;45.818;15.964;2022-09-29T16:57:28;22.10;87.10
43997;DHT22;34318;45.818;15.964;2022-09-29T17:00:05;22.10;87.10
43997;DHT22;34318;45.818;15.964;2022-09-29T17:02:34;22.10;87.20
43997;DHT22;34318;45.818;15.964;2022-09-29T17:05:01;22.20;87.10
43997;DHT22;34318;45.818;15.964;2022-09-29T17:07:31;22.10;86.70
43997;DHT22;34318;45.818;15.964;2022-09-29T17:09:59;22.10;87.20
43997;DHT22;34318;45.818;15.964;2022-09-29T17:12:29;22.10;87.60
43997;DHT22;34318;45.818;15.964;2022-09-29T17:14:56;22.10;87.40
43997;DHT22;34318;45.818;15.964;2022-09-29T17:17:26;22.10;86.90
43997;DHT22;34318;45.818;15.964;2022-09-29T17:19:55;22.10;87.30
43997;DHT22;34318;45.818;15.964;2022-09-29T17:22:33;22.10;87.20
43997;DHT22;34318;45.818;15.964;2022-09-29T17:25:03;22.10;87.40
43997;DHT22;34318;45.818;15.964;2022-09-29T17:27:30;22.10;86.90
43997;DHT22;34318;45.818;15.964;2022-09-29T17:30:21;22.10;87.20
43997;DHT22;34318;45.818;15.964;2022-09-29T17:32:52;22.10;87.60
43997;DHT22;34318;45.818;15.964;2022-09-29T17:35:25;22.10;88.70
43997;DHT22;34318;45.818;15.964;2022-09-29T17:37:53;22.10;88.50
43997;DHT22;34318;45.818;15.964;2022-09-29T17:43:30;22.00;88.50
43997;DHT22;34318;45.818;15.964;2022-09-29T17:45:58;22.00;88.30
43997;DHT22;34318;45.818;15.964;2022-09-29T17:48:27;22.10;88.10
43997;DHT22;34318;45.818;15.964;2022-09-29T17:50:55;22.00;88.10
43997;DHT22;34318;45.818;15.964;2022-09-29T17:53:25;22.00;88.40
43997;DHT22;34318;45.818;15.964;2022-09-29T17:55:55;22.00;88.20
43997;DHT22;34318;45.818;15.964;2022-09-29T17:58:22;22.00;87.80
43997;DHT22;34318;45.818;15.964;2022-09-29T18:00:52;22.10;88.20
43997;DHT22;34318;45.818;15.964;2022-09-29T18:03:21;22.00;88.00
43997;DHT22;34318;45.818;15.964;2022-09-29T18:05:54;22.10;87.70
43997;DHT22;34318;45.818;15.964;2022-09-29T18:08:26;22.10;87.70
43997;DHT22;34318;45.818;15.964;2022-09-29T18:11:00;22.10;87.80
43997;DHT22;34318;45.818;15.964;2022-09-29T18:13:29;22.00;87.60
43997;DHT22;34318;45.818;15.964;2022-09-29T18:15:59;22.10;88.10
43997;DHT22;34318;45.818;15.964;2022-09-29T18:18:26;22.10;87.90
43997;DHT22;34318;45.818;15.964;2022-09-29T18:20:53;22.10;88.00
43997;DHT22;34318;45.818;15.964;2022-09-29T18:23:20;22.10;88.00
43997;DHT22;34318;45.818;15.964;2022-09-29T18:25:50;22.10;87.90
43997;DHT22;34318;45.818;15.964;2022-09-29T18:28:17;22.20;88.10
43997;DHT22;34318;45.818;15.964;2022-09-29T18:30:47;22.20;87.50
43997;DHT22;34318;45.818;15.964;2022-09-29T18:33:18;22.20;87.70
43997;DHT22;34318;45.818;15.964;2022-09-29T18:35:51;22.30;87.40
43997;DHT22;34318;45.818;15.964;2022-09-29T18:38:19;22.40;88.90
43997;DHT22;34318;45.818;15.964;2022-09-29T18:40:46;22.50;89.40
43997;DHT22;34318;45.818;15.964;2022-09-29T18:43:17;22.50;88.70
43997;DHT22;34318;45.818;15.964;2022-09-29T18:45:46;22.50;88.40
43997;DHT22;34318;45.818;15.964;2022-09-29T18:48:14;22.50;88.80
43997;DHT22;34318;45.818;15.964;2022-09-29T18:50:46;22.50;89.10
43997;DHT22;34318;45.818;15.964;2022-09-29T18:53:15;22.40;90.10
43997;DHT22;34318;45.818;15.964;2022-09-29T18:55:42;22.50;89.20
43997;DHT22;34318;45.818;15.964;2022-09-29T18:58:14;22.50;89.00
43997;DHT22;34318;45.818;15.964;2022-09-29T19:00:47;22.40;89.00
43997;DHT22;34318;45.818;15.964;2022-09-29T19:03:16;22.50;89.60
43997;DHT22;34318;45.818;15.964;2022-09-29T19:05:45;22.40;89.10
43997;DHT22;34318;45.818;15.964;2022-09-29T19:08:14;22.40;88.90
43997;DHT22;34318;45.818;15.964;2022-09-29T19:10:47;22.40;89.00
43997;DHT22;34318;45.818;15.964;2022-09-29T19:13:15;22.30;89.20
43997;DHT22;34318;45.818;15.964;2022-09-29T19:15:43;22.30;89.10
43997;DHT22;34318;45.818;15.964;2022-09-29T19:18:15;22.30;89.10
43997;DHT22;34318;45.818;15.964;2022-09-29T19:20:44;22.30;89.10
43997;DHT22;34318;45.818;15.964;2022-09-29T19:23:10;22.30;89.10
43997;DHT22;34318;45.818;15.964;2022-09-29T19:25:38;22.30;89.30
43997;DHT22;34318;45.818;15.964;2022-09-29T19:28:06;22.30;89.30
43997;DHT22;34318;45.818;15.964;2022-09-29T19:30:38;22.20;89.40
43997;DHT22;34318;45.818;15.964;2022-09-29T19:33:10;22.20;89.30